Time;durP1;ratioP1;P1;durP2;ratioP2;P2;SDS_P1;SDS_P2;PMS_P1;PMS_P2;Temp;Humidity;BMP_temperature;BMP_pressure;BME280_temperature;BME280_humidity;BME280_pressure;Samples;Min_cycle;Max_cycle;Signal;HPM_P1;HPM_P2
2022/09/28 00:01:44;;;;;;;6.05;1.83;;;11.50;99.90;;;;;;5001469;28;20046;-85
2022/09/28 00:04:16;;;;;;;9.20;1.75;;;11.80;99.90;;;;;;5005975;28;20042;-84
2022/09/28 00:06:47;;;;;;;12.18;1.83;;;12.60;99.90;;;;;;5001042;28;20051;-84
2022/09/28 00:09:17;;;;;;;6.70;1.73;;;11.50;99.90;;;;;;5002651;28;20066;-84
2022/09/28 00:11:46;;;;;;;4.50;1.30;;;11.90;99.90;;;;;;5007433;28;20050;-85
2022/09/28 00:14:15;;;;;;;6.80;1.58;;;11.60;99.90;;;;;;5015690;28;20054;-86
2022/09/28 00:16:47;;;;;;;8.52;1.33;;;12.10;99.90;;;;;;5002437;28;20077;-85
2022/09/28 00:19:19;;;;;;;8.27;1.93;;;11.60;99.90;;;;;;5002604;28;20115;-85
2022/09/28 00:21:50;;;;;;;3.97;1.27;;;11.60;99.90;;;;;;5020479;28;20046;-85
2022/09/28 00:24:19;;;;;;;6.38;1.55;;;11.90;99.90;;;;;;5006197;28;20052;-85
2022/09/28 00:26:54;;;;;;;6.88;1.98;;;12.20;99.90;;;;;;5017023;28;20046;-86
2022/09/28 00:29:31;;;;;;;6.68;1.80;;;11.70;99.90;;;;;;4993005;28;20057;-85
2022/09/28 00:32:12;;;;;;;7.38;1.25;;;12.10;99.90;;;;;;5008215;28;20126;-86
2022/09/28 00:34:48;;;;;;;6.45;1.58;;;11.70;99.90;;;;;;5012205;28;20046;-85
2022/09/28 00:37:24;;;;;;;6.05;1.30;;;12.00;99.90;;;;;;4996542;28;20058;-85
2022/09/28 00:39:50;;;;;;;8.35;1.60;;;11.80;99.90;;;;;;4991016;28;20339;-84
2022/09/28 00:42:24;;;;;;;5.07;1.10;;;11.70;99.90;;;;;;5001709;28;20053;-85
2022/09/28 00:44:58;;;;;;;3.88;1.20;;;11.60;99.90;;;;;;5016553;28;20055;-84
2022/09/28 00:47:42;;;;;;;5.72;1.30;;;12.40;99.90;;;;;;4995014;28;20063;-85
2022/09/28 00:50:18;;;;;;;7.25;2.03;;;11.70;99.90;;;;;;5006296;28;20118;-85
2022/09/28 00:52:54;;;;;;;6.45;1.50;;;11.70;99.90;;;;;;5003956;28;20051;-85
2022/09/28 00:56:02;;;;;;;6.72;2.30;;;11.60;99.90;;;;;;4996353;28;20106;-86
2022/09/28 00:58:33;;;;;;;4.43;1.20;;;11.60;99.90;;;;;;4995316;28;20129;-85
2022/09/28 01:01:00;;;;;;;6.45;1.30;;;11.70;99.90;;;;;;4989354;28;20050;-85
2022/09/28 01:03:28;;;;;;;4.30;1.20;;;11.60;99.90;;;;;;5004679;28;20113;-85
2022/09/28 01:05:58;;;;;;;4.78;1.10;;;11.60;99.90;;;;;;4998322;28;20059;-85
2022/09/28 01:08:28;;;;;;;;;;;11.60;99.90;;;;;;5002623;28;20420;-85
2022/09/28 01:10:56;;;;;;;;;;;11.70;99.90;;;;;;4990999;28;19922;-86
2022/09/28 01:13:23;;;;;;;4.10;1.23;;;11.60;99.90;;;;;;5003220;28;19922;-85
2022/09/28 01:16:29;;;;;;;5.07;1.00;;;11.60;99.90;;;;;;5016733;28;20077;-85
2022/09/28 01:19:03;;;;;;;4.07;1.23;;;11.60;99.90;;;;;;4995206;28;20105;-84
2022/09/28 01:21:46;;;;;;;4.55;1.08;;;11.60;99.90;;;;;;4986231;28;20068;-84
2022/09/28 01:24:39;;;;;;;5.85;1.25;;;11.60;99.90;;;;;;4988108;28;20078;-85
2022/09/28 01:27:27;;;;;;;6.20;1.40;;;11.60;99.90;;;;;;4998050;28;20145;-84
2022/09/28 01:30:07;;;;;;;3.90;1.13;;;11.50;99.90;;;;;;5002339;28;20520;-85
2022/09/28 01:32:57;;;;;;;4.57;1.35;;;11.50;99.90;;;;;;4987239;28;20145;-84
2022/09/28 01:35:30;;;;;;;;;;;11.50;99.90;;;;;;4990318;28;20131;-84
2022/09/28 01:38:24;;;;;;;2.63;1.10;;;11.50;99.90;;;;;;5010757;28;19922;-84
2022/09/28 01:40:51;;;;;;;3.22;0.85;;;11.50;99.90;;;;;;4998941;28;20063;-85
2022/09/28 01:43:26;;;;;;;4.40;1.00;;;11.50;99.90;;;;;;5005223;28;20581;-84
2022/09/28 01:46:05;;;;;;;3.47;0.98;;;11.50;99.90;;;;;;5017566;28;20504;-85
2022/09/28 01:48:39;;;;;;;6.72;1.27;;;11.50;99.90;;;;;;4995841;28;20057;-84
2022/09/28 01:51:15;;;;;;;2.72;0.82;;;11.50;99.90;;;;;;4991795;28;20058;-85
2022/09/28 01:53:51;;;;;;;2.10;0.80;;;11.50;99.90;;;;;;4991393;28;20496;-84
2022/09/28 01:56:27;;;;;;;2.58;0.68;;;11.50;99.90;;;;;;5003149;28;20472;-84
2022/09/28 01:59:02;;;;;;;1.73;0.68;;;11.50;99.90;;;;;;4997337;28;20515;-85
2022/09/28 02:01:37;;;;;;;4.00;0.80;;;11.50;99.90;;;;;;5001188;28;20046;-84
2022/09/28 02:04:14;;;;;;;0.65;0.50;;;11.50;99.90;;;;;;4992580;28;20046;-85
2022/09/28 02:06:56;;;;;;;2.38;0.60;;;11.40;99.90;;;;;;5003611;28;20054;-85
2022/09/28 02:09:30;;;;;;;3.10;0.60;;;11.50;99.90;;;;;;4992665;28;20050;-84
2022/09/28 02:12:04;;;;;;;3.72;0.90;;;11.50;99.90;;;;;;4990748;28;20082;-83
2022/09/28 02:14:37;;;;;;;3.58;0.80;;;11.40;99.90;;;;;;4992755;28;20068;-84
2022/09/28 02:17:04;;;;;;;2.65;0.60;;;11.40;99.90;;;;;;5002844;28;20046;-84
2022/09/28 02:19:32;;;;;;;0.68;0.47;;;11.40;99.90;;;;;;5002737;28;20241;-84
2022/09/28 02:22:27;;;;;;;1.55;0.52;;;11.40;99.90;;;;;;4990761;28;20050;-83
2022/09/28 02:25:19;;;;;;;2.55;0.63;;;11.40;99.90;;;;;;4990305;28;20050;-84
2022/09/28 02:27:59;;;;;;;1.83;0.55;;;11.40;99.90;;;;;;5000942;28;20064;-83
2022/09/28 02:30:29;;;;;;;2.42;0.40;;;11.40;99.90;;;;;;4999666;28;20086;-82
2022/09/28 02:33:02;;;;;;;1.33;0.60;;;11.40;99.90;;;;;;4990538;28;20057;-84
2022/09/28 02:35:28;;;;;;;2.42;0.40;;;11.40;99.90;;;;;;4992232;28;20062;-85
2022/09/28 02:37:55;;;;;;;1.05;0.40;;;11.50;99.90;;;;;;5003289;28;20450;-83
2022/09/28 02:40:30;;;;;;;0.40;0.35;;;11.50;99.90;;;;;;4995177;28;20076;-84
2022/09/28 02:43:13;;;;;;;3.70;1.17;;;11.50;99.90;;;;;;4997834;28;20049;-84
2022/09/28 02:46:04;;;;;;;1.27;0.50;;;11.50;99.90;;;;;;4998966;28;20046;-84
2022/09/28 02:48:51;;;;;;;0.50;0.30;;;11.50;99.90;;;;;;5000585;28;20050;-85
2022/09/28 02:51:48;;;;;;;2.45;0.77;;;11.50;99.90;;;;;;4996470;28;20066;-84
2022/09/28 02:54:36;;;;;;;4.38;0.63;;;11.50;99.90;;;;;;4989592;28;20053;-84
2022/09/28 02:57:20;;;;;;;1.83;0.50;;;11.50;99.90;;;;;;4988796;28;20125;-85
2022/09/28 03:00:11;;;;;;;0.40;0.40;;;11.60;99.90;;;;;;4997682;28;20092;-85
2022/09/28 03:03:00;;;;;;;1.20;0.40;;;11.60;99.90;;;;;;4992950;28;20083;-85
2022/09/28 03:05:51;;;;;;;1.60;0.50;;;11.50;99.90;;;;;;4987968;28;20173;-84
2022/09/28 03:08:34;;;;;;;1.75;0.95;;;11.60;99.90;;;;;;5000738;28;20572;-85
2022/09/28 03:11:15;;;;;;;0.70;0.47;;;11.60;99.90;;;;;;5002009;28;20138;-85
2022/09/28 03:13:42;;;;;;;1.50;0.60;;;11.60;99.90;;;;;;4990171;28;20050;-84
2022/09/28 03:16:15;;;;;;;1.08;0.50;;;11.50;99.90;;;;;;4984143;28;20047;-84
2022/09/28 03:18:53;;;;;;;0.30;0.30;;;11.60;99.90;;;;;;4995095;28;20070;-84
2022/09/28 03:21:33;;;;;;;0.45;0.43;;;11.70;99.90;;;;;;5011065;28;20111;-85
2022/09/28 03:24:00;;;;;;;1.13;0.50;;;11.50;99.90;;;;;;4991385;28;20042;-84
2022/09/28 03:26:32;;;;;;;0.50;0.40;;;11.60;99.90;;;;;;4983034;28;20051;-83
2022/09/28 03:29:01;;;;;;;0.82;0.50;;;11.60;99.90;;;;;;4983164;28;20058;-83
2022/09/28 03:31:30;;;;;;;2.50;0.80;;;11.60;99.90;;;;;;4997106;28;20055;-85
2022/09/28 03:33:58;;;;;;;0.73;0.60;;;11.70;99.90;;;;;;4990785;28;20133;-84
2022/09/28 03:36:27;;;;;;;2.58;0.50;;;11.70;99.90;;;;;;4982253;28;20086;-85
2022/09/28 03:38:59;;;;;;;1.52;0.70;;;11.80;99.90;;;;;;4982553;28;20054;-85
2022/09/28 03:41:29;;;;;;;2.88;0.50;;;11.70;99.90;;;;;;4997621;28;20064;-84
2022/09/28 03:44:06;;;;;;;4.18;0.85;;;11.90;99.90;;;;;;4980672;28;20081;-84
2022/09/28 03:46:39;;;;;;;2.58;1.30;;;11.70;99.90;;;;;;4986742;28;20057;-84
2022/09/28 03:49:18;;;;;;;4.03;1.23;;;11.70;99.90;;;;;;4988058;28;20642;-84
2022/09/28 03:51:53;;;;;;;1.10;0.77;;;11.70;99.90;;;;;;4999020;28;20046;-83
2022/09/28 03:54:27;;;;;;;1.30;0.70;;;11.70;99.90;;;;;;5005581;28;20060;-84
2022/09/28 03:56:56;;;;;;;1.33;0.82;;;11.70;99.90;;;;;;4996773;28;20046;-84
2022/09/28 03:59:31;;;;;;;1.08;0.60;;;12.10;99.90;;;;;;5014026;28;20500;-85
2022/09/28 04:02:00;;;;;;;1.08;0.55;;;12.20;99.90;;;;;;4983426;28;20476;-83
2022/09/28 04:04:46;;;;;;;3.53;0.80;;;11.80;99.90;;;;;;4994306;28;20065;-83
2022/09/28 04:07:16;;;;;;;1.30;0.57;;;11.80;99.90;;;;;;4999321;28;20097;-83
2022/09/28 04:09:43;;;;;;;3.42;1.30;;;12.00;99.90;;;;;;5002478;28;20058;-83
2022/09/28 04:12:24;;;;;;;3.45;1.45;;;12.10;99.90;;;;;;5000843;28;20077;-84
2022/09/28 04:14:51;;;;;;;1.20;0.95;;;11.70;99.90;;;;;;4997557;28;20133;-83
2022/09/28 04:17:21;;;;;;;3.43;0.87;;;12.00;99.90;;;;;;4990100;28;20050;-83
2022/09/28 04:19:47;;;;;;;1.50;0.70;;;11.80;99.90;;;;;;4987637;28;20057;-83
2022/09/28 04:22:20;;;;;;;1.35;0.50;;;11.70;99.90;;;;;;5014510;28;20058;-84
2022/09/28 04:24:52;;;;;;;0.55;0.45;;;11.80;99.90;;;;;;5003649;28;20070;-84
2022/09/28 04:30:16;;;;;;;1.48;0.40;;;11.80;99.90;;;;;;4986888;28;20065;-84
2022/09/28 04:32:52;;;;;;;0.75;0.40;;;11.70;99.90;;;;;;5002889;28;20116;-84
2022/09/28 04:35:34;;;;;;;2.58;0.57;;;11.80;99.90;;;;;;4993214;28;20134;-84
2022/09/28 04:38:20;;;;;;;0.35;0.25;;;11.80;99.90;;;;;;4996468;28;20059;-83
2022/09/28 04:41:15;;;;;;;1.52;0.73;;;11.70;99.90;;;;;;5002705;28;20050;-83
2022/09/28 04:43:42;;;;;;;1.90;0.50;;;11.70;99.90;;;;;;5017548;28;20051;-83
2022/09/28 04:46:13;;;;;;;2.10;0.98;;;11.60;99.90;;;;;;5000181;28;20054;-83
2022/09/28 04:48:46;;;;;;;1.85;0.40;;;11.90;99.90;;;;;;4992680;28;20110;-83
2022/09/28 04:51:18;;;;;;;1.33;0.38;;;11.70;99.90;;;;;;5008153;28;20054;-84
2022/09/28 04:53:45;;;;;;;2.13;0.67;;;11.70;99.90;;;;;;5001378;28;20050;-84
2022/09/28 04:56:17;;;;;;;0.60;0.30;;;11.70;99.90;;;;;;5001501;28;20483;-83
2022/09/28 04:58:54;;;;;;;0.52;0.30;;;11.70;99.90;;;;;;4994163;28;20050;-84
2022/09/28 05:01:23;;;;;;;1.08;0.60;;;11.80;99.90;;;;;;5000381;28;20046;-84
2022/09/28 05:03:57;;;;;;;1.17;0.40;;;11.60;99.90;;;;;;5001680;28;20065;-84
2022/09/28 05:06:27;;;;;;;0.60;0.20;;;11.60;99.90;;;;;;5001578;28;20062;-83
2022/09/28 05:09:01;;;;;;;0.65;0.50;;;11.70;99.90;;;;;;4990751;28;20428;-83
2022/09/28 05:11:34;;;;;;;2.25;0.40;;;11.70;99.90;;;;;;5000036;28;20054;-83
2022/09/28 05:14:04;;;;;;;1.55;0.30;;;11.50;99.90;;;;;;5002695;28;20074;-83
2022/09/28 05:16:35;;;;;;;0.30;0.30;;;11.70;99.90;;;;;;4998560;28;20074;-85
2022/09/28 05:19:29;;;;;;;0.63;0.38;;;11.60;99.90;;;;;;5000374;28;20052;-83
2022/09/28 05:22:10;;;;;;;0.43;0.38;;;11.70;99.90;;;;;;4997985;28;20424;-83
2022/09/28 05:24:37;;;;;;;0.47;0.38;;;11.80;99.90;;;;;;5003277;28;20046;-84
2022/09/28 05:27:07;;;;;;;0.30;0.25;;;12.00;99.90;;;;;;4999483;28;20511;-84
2022/09/28 05:29:38;;;;;;;0.75;0.25;;;12.10;99.90;;;;;;4983857;28;20054;-83
2022/09/28 05:32:31;;;;;;;0.30;0.20;;;11.70;99.90;;;;;;4989547;28;20058;-84
2022/09/28 05:35:10;;;;;;;0.65;0.35;;;11.60;99.90;;;;;;4985768;28;20081;-83
2022/09/28 05:37:56;;;;;;;0.22;0.22;;;11.70;99.90;;;;;;4990975;28;20058;-82
2022/09/28 05:40:28;;;;;;;0.50;0.30;;;11.70;99.90;;;;;;4993481;28;20055;-84
2022/09/28 05:43:10;;;;;;;0.47;0.28;;;11.60;99.90;;;;;;4995453;28;20052;-84
2022/09/28 05:45:44;;;;;;;2.20;0.63;;;11.70;99.90;;;;;;4983273;28;20051;-84
2022/09/28 05:48:24;;;;;;;1.52;0.40;;;11.70;99.90;;;;;;5003071;28;20522;-84
2022/09/28 05:51:11;;;;;;;0.75;0.45;;;11.70;99.90;;;;;;4992568;28;20058;-83
2022/09/28 05:53:58;;;;;;;1.73;0.30;;;11.70;99.90;;;;;;4999146;28;20046;-83
2022/09/28 05:56:31;;;;;;;1.30;0.40;;;11.70;99.90;;;;;;4999485;28;20058;-83
2022/09/28 05:59:06;;;;;;;0.65;0.30;;;11.70;99.90;;;;;;4995525;28;20046;-83
2022/09/28 06:01:45;;;;;;;0.45;0.30;;;11.70;99.90;;;;;;4994385;28;20486;-83
2022/09/28 06:04:13;;;;;;;0.85;0.20;;;11.70;99.90;;;;;;4997499;28;20050;-83
2022/09/28 06:06:41;;;;;;;0.73;0.30;;;11.70;99.90;;;;;;4986183;28;20054;-84
2022/09/28 06:09:08;;;;;;;0.43;0.40;;;11.70;99.90;;;;;;4991078;28;20055;-85
2022/09/28 06:11:34;;;;;;;0.50;0.40;;;11.70;99.90;;;;;;5001080;28;20094;-85
2022/09/28 06:14:01;;;;;;;0.88;0.25;;;11.70;99.90;;;;;;5007824;28;20058;-82
2022/09/28 06:16:28;;;;;;;0.30;0.30;;;11.70;99.90;;;;;;5003144;28;20102;-83
2022/09/28 06:18:55;;;;;;;1.40;0.45;;;11.70;99.90;;;;;;4995846;28;20085;-83
2022/09/28 06:21:22;;;;;;;3.22;0.40;;;11.80;99.90;;;;;;4981093;28;20555;-83
2022/09/28 06:23:48;;;;;;;1.90;0.73;;;11.80;99.90;;;;;;4989817;28;20110;-83
2022/09/28 06:26:16;;;;;;;0.50;0.50;;;11.80;99.90;;;;;;4989919;28;20050;-83
2022/09/28 06:28:54;;;;;;;0.47;0.27;;;11.80;99.90;;;;;;4995820;28;20574;-83
2022/09/28 06:31:24;;;;;;;1.38;0.40;;;11.90;99.90;;;;;;4996165;28;20062;-83
2022/09/28 06:33:51;;;;;;;0.77;0.70;;;11.90;99.90;;;;;;4987920;28;20066;-83
2022/09/28 06:36:19;;;;;;;1.35;0.57;;;11.90;99.90;;;;;;4982319;28;20416;-82
2022/09/28 06:38:46;;;;;;;1.15;0.43;;;11.90;99.90;;;;;;4980409;28;20047;-83
2022/09/28 06:41:13;;;;;;;3.17;0.47;;;11.90;99.90;;;;;;4989054;28;20534;-83
2022/09/28 06:43:40;;;;;;;0.60;0.30;;;11.90;99.90;;;;;;4990376;28;20113;-84
2022/09/28 06:46:08;;;;;;;0.68;0.30;;;11.90;99.90;;;;;;4986279;28;20055;-84
2022/09/28 06:48:36;;;;;;;1.92;0.98;;;11.90;99.90;;;;;;4995763;28;20042;-83
2022/09/28 06:51:03;;;;;;;0.60;0.50;;;11.90;99.90;;;;;;4997254;28;20197;-84
2022/09/28 06:53:31;;;;;;;2.63;0.90;;;12.00;99.90;;;;;;4993103;28;20051;-83
2022/09/28 06:55:59;;;;;;;1.05;0.60;;;12.00;99.90;;;;;;4984203;28;20591;-83
2022/09/28 06:58:26;;;;;;;1.40;0.50;;;12.00;99.90;;;;;;4989486;28;20500;-83
2022/09/28 07:00:58;;;;;;;1.27;0.68;;;12.00;99.90;;;;;;4989227;28;20142;-83
2022/09/28 07:03:26;;;;;;;0.80;0.52;;;12.00;99.90;;;;;;4996659;28;20109;-83
2022/09/28 07:05:55;;;;;;;2.70;0.60;;;12.00;99.90;;;;;;4995150;28;20057;-83
2022/09/28 07:08:24;;;;;;;2.55;0.70;;;12.10;99.90;;;;;;4988302;28;20088;-85
2022/09/28 07:10:56;;;;;;;1.30;0.70;;;12.10;99.90;;;;;;4997592;28;20412;-84
2022/09/28 07:13:27;;;;;;;0.80;0.60;;;12.20;99.90;;;;;;4990652;28;20133;-83
2022/09/28 07:16:14;;;;;;;1.40;0.68;;;12.20;99.90;;;;;;4990866;28;20056;-83
2022/09/28 07:18:41;;;;;;;1.77;0.60;;;12.10;99.90;;;;;;4982634;28;20046;-83
2022/09/28 07:21:07;;;;;;;1.17;0.80;;;12.20;99.90;;;;;;4992816;28;20522;-82
2022/09/28 07:23:41;;;;;;;0.70;0.55;;;12.20;99.90;;;;;;4990156;28;20413;-83
2022/09/28 07:26:19;;;;;;;2.25;0.80;;;12.20;99.90;;;;;;4991408;28;20057;-83
2022/09/28 07:28:50;;;;;;;1.02;0.50;;;12.20;99.90;;;;;;4980127;28;20078;-82
2022/09/28 07:31:16;;;;;;;1.10;0.50;;;12.20;99.90;;;;;;4981832;28;20082;-84
2022/09/28 07:33:44;;;;;;;0.82;0.75;;;12.30;99.90;;;;;;4984886;28;20061;-82
2022/09/28 07:36:11;;;;;;;1.65;0.88;;;12.30;99.90;;;;;;4990592;28;20060;-84
2022/09/28 07:38:38;;;;;;;2.10;0.70;;;12.30;99.90;;;;;;4995381;28;20043;-83
2022/09/28 07:41:10;;;;;;;2.88;0.90;;;12.40;99.90;;;;;;4994631;28;20141;-82
2022/09/28 07:43:38;;;;;;;1.27;0.95;;;12.40;99.90;;;;;;4990110;28;20129;-84
2022/09/28 07:46:10;;;;;;;1.27;0.95;;;12.30;99.90;;;;;;4992579;28;20074;-83
2022/09/28 07:48:39;;;;;;;3.38;1.00;;;12.30;99.90;;;;;;4981281;28;20519;-84
2022/09/28 07:51:06;;;;;;;2.58;0.80;;;12.40;99.90;;;;;;4992729;28;20053;-82
2022/09/28 07:53:34;;;;;;;3.03;1.10;;;12.30;99.90;;;;;;4996949;28;20054;-83
2022/09/28 07:56:05;;;;;;;3.67;0.77;;;12.40;99.90;;;;;;4989678;28;20050;-82
2022/09/28 07:58:33;;;;;;;6.25;1.10;;;12.40;99.90;;;;;;4985024;28;20047;-84
2022/09/28 08:01:04;;;;;;;4.10;1.55;;;12.40;99.90;;;;;;4983534;28;20161;-81
2022/09/28 08:03:31;;;;;;;6.72;1.50;;;12.40;99.90;;;;;;4985080;28;20057;-82
2022/09/28 08:06:04;;;;;;;5.35;2.10;;;12.40;99.90;;;;;;4987421;28;20073;-82
2022/09/28 08:08:33;;;;;;;3.03;1.10;;;12.40;99.90;;;;;;4983007;28;20516;-84
2022/09/28 08:10:59;;;;;;;4.57;1.67;;;12.30;99.90;;;;;;4981465;28;20548;-83
2022/09/28 08:13:26;;;;;;;4.00;1.70;;;12.40;99.90;;;;;;4992206;28;20047;-82
2022/09/28 08:15:54;;;;;;;6.75;1.45;;;12.40;99.90;;;;;;4988242;28;20055;-82
2022/09/28 08:18:22;;;;;;;2.08;1.13;;;12.40;99.90;;;;;;4985292;28;20051;-82
2022/09/28 08:23:37;;;;;;;4.25;1.27;;;12.40;99.90;;;;;;4994116;28;20137;-82
2022/09/28 08:26:04;;;;;;;2.83;1.10;;;12.40;99.90;;;;;;4994682;28;20055;-82
2022/09/28 08:28:32;;;;;;;6.35;1.40;;;12.40;99.90;;;;;;4983782;28;20154;-82
2022/09/28 08:31:02;;;;;;;2.78;0.95;;;12.40;99.90;;;;;;4980324;28;20058;-82
2022/09/28 08:33:29;;;;;;;1.55;1.00;;;12.40;99.90;;;;;;4990473;28;20622;-82
2022/09/28 08:35:58;;;;;;;1.85;0.63;;;12.50;99.90;;;;;;4988044;28;20077;-83
2022/09/28 08:38:26;;;;;;;5.20;1.30;;;12.50;99.90;;;;;;4995091;28;20110;-82
2022/09/28 08:41:06;;;;;;;3.97;0.90;;;12.50;99.90;;;;;;4987535;28;20419;-85
2022/09/28 08:43:51;;;;;;;2.83;1.27;;;12.50;99.90;;;;;;4985218;28;20059;-83
2022/09/28 08:46:23;;;;;;;7.45;3.13;;;12.50;99.90;;;;;;4991782;28;20042;-83
2022/09/28 08:49:02;;;;;;;4.43;2.30;;;12.60;99.90;;;;;;4986764;28;20125;-84
2022/09/28 08:52:03;;;;;;;4.35;1.63;;;12.60;99.90;;;;;;4989269;28;20055;-83
2022/09/28 08:54:43;;;;;;;4.07;1.40;;;12.60;99.90;;;;;;4988106;28;20061;-82
2022/09/28 08:57:21;;;;;;;2.50;1.40;;;12.70;99.90;;;;;;4997308;28;20047;-82
2022/09/28 08:59:52;;;;;;;5.47;1.23;;;12.70;99.90;;;;;;4985341;28;20109;-82
2022/09/28 09:02:24;;;;;;;;;;;12.80;99.90;;;;;;4978374;28;20070;-82
2022/09/28 09:04:52;;;;;;;4.50;1.20;;;12.70;99.90;;;;;;4993794;28;19928;-84
2022/09/28 09:07:50;;;;;;;3.60;1.30;;;12.70;99.90;;;;;;4997121;28;20065;-82
2022/09/28 09:10:46;;;;;;;3.45;1.33;;;12.80;99.90;;;;;;4992697;28;20411;-81
2022/09/28 09:13:44;;;;;;;3.13;1.30;;;12.80;99.90;;;;;;4993730;28;20051;-83
2022/09/28 09:16:49;;;;;;;2.92;1.00;;;12.80;99.90;;;;;;4995369;28;20142;-82
2022/09/28 09:19:34;;;;;;;2.67;1.15;;;12.80;99.90;;;;;;4989403;28;20046;-83
2022/09/28 09:22:16;;;;;;;4.55;1.45;;;12.80;99.90;;;;;;4985079;28;20146;-82
2022/09/28 09:25:06;;;;;;;5.47;1.20;;;12.80;99.90;;;;;;4985989;28;20060;-84
2022/09/28 09:28:11;;;;;;;1.65;0.88;;;12.80;99.90;;;;;;4987508;28;20053;-84
2022/09/28 09:31:04;;;;;;;7.85;1.33;;;12.90;99.90;;;;;;4989812;28;20110;-84
2022/09/28 09:33:52;;;;;;;5.53;1.35;;;12.90;99.90;;;;;;4980055;28;20051;-83
2022/09/28 09:36:26;;;;;;;2.53;1.17;;;12.90;99.90;;;;;;4989110;28;20047;-84
2022/09/28 09:39:25;;;;;;;3.70;1.70;;;13.00;99.90;;;;;;4989364;28;20082;-83
2022/09/28 09:42:07;;;;;;;5.15;1.48;;;13.00;99.90;;;;;;4987782;28;20046;-83
2022/09/28 09:45:03;;;;;;;3.53;1.30;;;13.00;99.90;;;;;;4980428;28;20429;-83
2022/09/28 09:47:44;;;;;;;7.15;1.70;;;13.10;99.90;;;;;;4961081;28;20146;-83
2022/09/28 09:50:28;;;;;;;3.58;1.75;;;13.10;99.90;;;;;;4991489;28;20428;-82
2022/09/28 09:53:23;;;;;;;3.22;2.05;;;13.10;99.90;;;;;;4976503;28;20069;-82
2022/09/28 09:55:56;;;;;;;5.68;2.28;;;13.10;99.90;;;;;;4980343;28;20058;-82
2022/09/28 09:58:33;;;;;;;5.00;2.30;;;13.10;99.90;;;;;;4989020;28;20109;-82
2022/09/28 10:01:08;;;;;;;3.92;1.67;;;13.10;99.90;;;;;;4984116;28;20054;-81
2022/09/28 10:03:39;;;;;;;2.88;1.73;;;13.20;99.90;;;;;;4983166;28;20472;-82
2022/09/28 10:06:26;;;;;;;2.85;1.02;;;13.20;99.90;;;;;;4977301;28;20139;-82
2022/09/28 10:09:05;;;;;;;3.00;1.33;;;13.20;99.90;;;;;;4981905;28;20169;-83
2022/09/28 10:11:38;;;;;;;3.28;1.10;;;13.30;99.90;;;;;;4987752;28;20137;-83
2022/09/28 10:14:07;;;;;;;2.55;0.93;;;13.40;99.90;;;;;;4980950;28;20062;-82
2022/09/28 10:16:34;;;;;;;5.57;1.77;;;13.50;99.90;;;;;;4977776;28;20054;-82
2022/09/28 10:19:01;;;;;;;2.45;1.20;;;13.50;99.90;;;;;;4992276;28;20057;-82
2022/09/28 10:21:29;;;;;;;3.42;1.00;;;13.50;99.90;;;;;;4986769;28;20050;-82
2022/09/28 10:23:58;;;;;;;2.80;0.90;;;13.50;99.90;;;;;;4984719;28;20050;-83
2022/09/28 10:26:37;;;;;;;4.63;1.00;;;13.50;99.90;;;;;;4991312;28;20051;-82
2022/09/28 10:29:14;;;;;;;5.50;1.35;;;13.50;99.90;;;;;;4992823;28;20062;-82
2022/09/28 10:31:44;;;;;;;3.38;1.10;;;13.50;99.90;;;;;;4982434;28;20113;-82
2022/09/28 10:34:15;;;;;;;4.53;1.63;;;13.50;99.90;;;;;;4987468;28;20133;-82
2022/09/28 10:36:54;;;;;;;6.47;1.95;;;13.50;99.90;;;;;;4989113;28;20066;-82
2022/09/28 10:39:30;;;;;;;5.03;2.05;;;13.40;99.90;;;;;;4990012;28;20053;-82
2022/09/28 10:42:02;;;;;;;3.60;1.67;;;13.40;99.90;;;;;;4982745;28;20057;-81
2022/09/28 10:44:33;;;;;;;3.22;1.67;;;13.30;99.90;;;;;;4992656;28;20046;-82
2022/09/28 10:47:08;;;;;;;6.40;2.30;;;13.30;99.90;;;;;;4979255;28;20424;-82
2022/09/28 10:49:41;;;;;;;4.20;1.90;;;13.40;99.90;;;;;;4986028;28;20136;-82
2022/09/28 10:52:34;;;;;;;5.18;1.60;;;13.30;99.90;;;;;;4991772;28;20082;-82
2022/09/28 10:55:20;;;;;;;3.53;1.90;;;13.30;99.90;;;;;;4990354;28;20134;-83
2022/09/28 10:57:47;;;;;;;3.13;1.20;;;13.40;99.90;;;;;;4999297;28;20038;-85
2022/09/28 11:00:32;;;;;;;5.05;1.38;;;13.40;99.90;;;;;;5014629;28;20030;-85
2022/09/28 11:03:01;;;;;;;3.80;1.13;;;13.40;99.90;;;;;;5002665;28;20082;-86
2022/09/28 11:05:28;;;;;;;2.70;0.93;;;13.40;99.90;;;;;;5006136;28;20050;-85
2022/09/28 11:07:58;;;;;;;3.03;0.90;;;13.40;99.90;;;;;;5019551;28;20030;-84
2022/09/28 11:10:28;;;;;;;2.05;0.70;;;13.40;99.90;;;;;;5005780;28;20110;-82
2022/09/28 11:12:56;;;;;;;3.30;0.90;;;13.40;99.90;;;;;;4988345;28;20526;-82
2022/09/28 11:15:32;;;;;;;1.90;0.88;;;13.40;99.90;;;;;;4981395;28;20290;-82
2022/09/28 11:18:17;;;;;;;2.83;1.02;;;13.40;99.90;;;;;;4996060;28;20047;-83
2022/09/28 11:20:44;;;;;;;2.08;0.93;;;13.40;99.90;;;;;;4985591;28;20061;-83
2022/09/28 11:23:31;;;;;;;2.53;0.85;;;13.50;99.90;;;;;;4975913;28;20129;-82
2022/09/28 11:26:08;;;;;;;4.75;1.02;;;13.40;99.90;;;;;;4979873;28;20047;-81
2022/09/28 11:28:41;;;;;;;4.28;1.23;;;13.50;99.90;;;;;;4977021;28;20058;-82
2022/09/28 11:31:10;;;;;;;2.25;0.80;;;13.50;99.90;;;;;;4977685;28;20096;-82
2022/09/28 11:33:38;;;;;;;3.42;0.70;;;13.50;99.90;;;;;;4992507;28;20094;-82
2022/09/28 11:36:17;;;;;;;1.42;0.68;;;13.50;99.90;;;;;;4985575;28;20065;-82
2022/09/28 11:39:07;;;;;;;2.30;0.93;;;13.50;99.90;;;;;;4990229;28;20053;-82
2022/09/28 11:41:37;;;;;;;;;;;13.50;99.90;;;;;;4988567;28;20065;-84
2022/09/28 11:44:35;;;;;;;0.88;0.55;;;13.50;99.90;;;;;;4981115;28;19926;-82
2022/09/28 11:47:24;;;;;;;2.28;0.77;;;13.50;99.90;;;;;;4990093;28;20533;-83
2022/09/28 11:50:01;;;;;;;3.50;1.15;;;13.50;99.90;;;;;;4991964;28;20552;-83
2022/09/28 11:52:49;;;;;;;3.40;0.95;;;13.50;99.90;;;;;;4993404;28;20509;-82
2022/09/28 11:55:44;;;;;;;3.53;1.40;;;13.30;99.90;;;;;;4992958;28;20515;-83
2022/09/28 11:58:23;;;;;;;2.55;0.90;;;13.30;99.90;;;;;;4986210;28;20050;-83
2022/09/28 12:00:56;;;;;;;2.22;1.10;;;13.30;99.90;;;;;;4988231;28;20049;-82
2022/09/28 12:03:40;;;;;;;3.58;2.17;;;13.30;99.90;;;;;;4979207;28;20142;-83
2022/09/28 12:06:17;;;;;;;5.63;1.95;;;13.20;99.90;;;;;;4989602;28;20051;-81
2022/09/28 12:09:02;;;;;;;4.88;2.13;;;13.30;99.90;;;;;;4996326;28;20058;-85
2022/09/28 12:11:40;;;;;;;2.70;0.80;;;13.30;99.90;;;;;;4979502;28;20059;-82
2022/09/28 12:14:20;;;;;;;3.50;1.15;;;13.30;99.90;;;;;;5007218;28;20078;-82
2022/09/28 12:16:59;;;;;;;4.68;1.33;;;13.30;99.90;;;;;;4984094;28;20094;-82
2022/09/28 12:19:39;;;;;;;1.83;1.05;;;13.40;99.90;;;;;;4976468;28;20141;-83
2022/09/28 12:22:33;;;;;;;1.30;0.70;;;13.40;99.90;;;;;;4975159;28;20110;-82
2022/09/28 12:25:02;;;;;;;3.75;2.20;;;13.40;99.90;;;;;;4981181;28;20119;-83
2022/09/28 12:27:38;;;;;;;2.88;1.50;;;13.40;99.90;;;;;;4993339;28;20043;-82
2022/09/28 12:30:21;;;;;;;2.67;0.80;;;13.40;99.90;;;;;;4982165;28;20134;-83
2022/09/28 12:33:02;;;;;;;2.38;0.73;;;13.40;99.90;;;;;;4990575;28;20082;-82
2022/09/28 12:35:35;;;;;;;2.42;0.93;;;13.40;99.90;;;;;;4988061;28;20133;-84
2022/09/28 12:38:23;;;;;;;1.95;1.30;;;13.40;99.90;;;;;;4978603;28;20051;-82
2022/09/28 12:41:18;;;;;;;1.65;0.82;;;13.40;99.90;;;;;;4980826;28;20051;-82
2022/09/28 12:44:16;;;;;;;3.03;0.80;;;13.40;99.90;;;;;;4980108;28;20077;-82
2022/09/28 12:47:20;;;;;;;3.45;1.17;;;13.40;99.90;;;;;;5001173;28;20073;-83
2022/09/28 12:49:56;;;;;;;2.90;0.80;;;13.30;99.90;;;;;;5006020;28;20051;-83
2022/09/28 12:53:14;;;;;;;2.40;0.80;;;13.20;99.90;;;;;;4984908;28;20047;-83
2022/09/28 12:55:40;;;;;;;2.53;0.98;;;13.30;99.90;;;;;;4991884;28;20133;-82
2022/09/28 12:58:39;;;;;;;2.00;1.00;;;13.20;99.90;;;;;;4991682;28;20101;-82
2022/09/28 13:01:38;;;;;;;3.30;1.08;;;13.30;99.90;;;;;;4986865;28;20173;-82
2022/09/28 13:04:21;;;;;;;3.28;1.10;;;13.20;99.90;;;;;;4997362;28;20058;-83
2022/09/28 13:07:06;;;;;;;2.45;1.20;;;13.20;99.90;;;;;;4999438;28;20679;-82
2022/09/28 13:10:16;;;;;;;5.25;1.30;;;13.20;99.90;;;;;;4996915;28;20057;-82
2022/09/28 13:12:45;;;;;;;2.17;0.80;;;13.30;99.90;;;;;;5003317;28;20082;-83
2022/09/28 13:15:37;;;;;;;1.75;0.90;;;13.30;99.90;;;;;;5002882;28;20050;-82
2022/09/28 13:18:08;;;;;;;5.30;1.60;;;13.40;99.90;;;;;;5003885;28;20057;-82
2022/09/28 13:20:41;;;;;;;3.47;1.00;;;13.30;99.90;;;;;;4999283;28;20106;-83
2022/09/28 13:23:26;;;;;;;2.38;1.00;;;13.40;99.90;;;;;;4999214;28;20051;-83
2022/09/28 13:26:00;;;;;;;2.33;0.70;;;13.50;99.90;;;;;;4993687;28;20107;-83
2022/09/28 13:28:28;;;;;;;0.68;0.65;;;13.50;99.90;;;;;;4998580;28;20065;-82
2022/09/28 13:30:58;;;;;;;1.35;0.60;;;13.60;99.90;;;;;;4997779;28;20061;-81
2022/09/28 13:33:30;;;;;;;2.60;0.70;;;13.60;99.90;;;;;;4993826;28;20061;-81
2022/09/28 13:35:56;;;;;;;3.13;0.90;;;13.70;99.90;;;;;;4986477;28;20055;-79
2022/09/28 13:38:24;;;;;;;1.60;0.80;;;13.70;99.90;;;;;;4995488;28;20385;-79
2022/09/28 13:41:03;;;;;;;1.65;0.50;;;13.80;99.90;;;;;;4996674;28;20139;-79